Time;durP1;ratioP1;P1;durP2;ratioP2;P2;SDS_P1;SDS_P2;PMS_P1;PMS_P2;Temp;Humidity;BMP_temperature;BMP_pressure;BME280_temperature;BME280_humidity;BME280_pressure;Samples;Min_cycle;Max_cycle;Signal;HPM_P1;HPM_P2
2021/08/12 00:02:00;;;;;;;;;;;16.80;99.90;;;;;;5145605;27;19923;-87
2021/08/12 00:04:26;;;;;;;;;;;16.80;99.90;;;;;;5124975;27;19934;-87
2021/08/12 00:06:52;;;;;;;;;;;16.80;99.90;;;;;;5142422;27;19923;-87
2021/08/12 00:09:18;;;;;;;;;;;16.90;99.90;;;;;;5122713;27;20286;-88
2021/08/12 00:11:43;;;;;;;;;;;16.90;99.90;;;;;;5131139;27;20397;-88
2021/08/12 00:14:09;;;;;;;;;;;16.90;99.90;;;;;;5114699;27;20404;-88
2021/08/12 00:16:35;;;;;;;;;;;16.90;99.90;;;;;;5146338;27;19930;-88
2021/08/12 00:19:01;;;;;;;;;;;16.90;99.90;;;;;;5113109;27;19926;-87
2021/08/12 00:21:27;;;;;;;;;;;16.90;99.90;;;;;;5126039;27;19971;-88
2021/08/12 00:23:53;;;;;;;;;;;17.00;99.90;;;;;;5114643;27;19920;-88
2021/08/12 00:26:19;;;;;;;;;;;17.00;99.90;;;;;;5127170;27;19920;-87
2021/08/12 00:28:45;;;;;;;;;;;17.00;99.90;;;;;;5122395;27;19930;-88
2021/08/12 00:31:11;;;;;;;;;;;16.90;99.90;;;;;;5111977;28;19941;-88
2021/08/12 00:33:37;;;;;;;;;;;17.00;99.90;;;;;;5111723;28;19923;-88
2021/08/12 00:36:03;;;;;;;;;;;17.00;99.90;;;;;;5110292;28;19924;-87
2021/08/12 00:38:28;;;;;;;;;;;17.00;99.90;;;;;;5110536;28;19923;-88
2021/08/12 00:40:54;;;;;;;;;;;17.00;99.90;;;;;;5123378;27;20328;-86
2021/08/12 00:43:20;;;;;;;;;;;17.00;99.90;;;;;;5129625;27;19931;-87
2021/08/12 00:45:46;;;;;;;;;;;17.00;99.90;;;;;;5111155;27;20282;-87
2021/08/12 00:48:11;;;;;;;;;;;17.00;99.90;;;;;;5129525;27;19927;-88
2021/08/12 00:50:40;;;;;;;;;;;17.00;99.90;;;;;;5124374;27;20302;-87
2021/08/12 00:53:05;;;;;;;;;;;16.90;99.90;;;;;;5117193;27;19923;-87
2021/08/12 00:55:31;;;;;;;;;;;16.90;99.90;;;;;;5126501;27;20329;-87
2021/08/12 00:57:58;;;;;;;;;;;16.90;99.90;;;;;;5117239;27;19928;-87
2021/08/12 01:00:23;;;;;;;;;;;16.90;99.90;;;;;;5128327;27;19919;-87
2021/08/12 01:02:49;;;;;;;;;;;16.80;99.90;;;;;;5125070;27;19982;-87
2021/08/12 01:05:16;;;;;;;;;;;16.80;99.90;;;;;;5156148;27;20324;-87
2021/08/12 01:07:51;;;;;;;;;;;16.80;99.90;;;;;;5142200;27;19987;-87
2021/08/12 01:10:16;;;;;;;;;;;16.80;99.90;;;;;;5169746;27;19930;-87
2021/08/12 01:13:01;;;;;;;;;;;16.80;99.90;;;;;;5131988;27;19923;-87
2021/08/12 01:15:36;;;;;;;;;;;16.80;99.90;;;;;;5148641;27;20003;-87
2021/08/12 01:18:12;;;;;;;;;;;16.80;99.90;;;;;;5152274;27;19926;-88
2021/08/12 01:20:47;;;;;;;;;;;16.70;99.90;;;;;;5152209;27;19960;-87
2021/08/12 01:23:14;;;;;;;;;;;16.70;99.90;;;;;;5140355;27;19927;-87
2021/08/12 01:25:42;;;;;;;;;;;16.60;99.90;;;;;;5149635;27;19929;-87
2021/08/12 01:28:10;;;;;;;;;;;16.70;99.90;;;;;;5166456;27;19930;-87
2021/08/12 01:30:42;;;;;;;;;;;16.60;99.90;;;;;;5131993;27;20445;-87
2021/08/12 01:33:08;;;;;;;;;;;16.70;99.90;;;;;;5115165;27;19929;-88
2021/08/12 01:35:36;;;;;;;;;;;16.60;99.90;;;;;;5131855;27;20021;-87
2021/08/12 01:38:03;;;;;;;;;;;16.60;99.90;;;;;;5138894;27;20298;-87
2021/08/12 01:40:30;;;;;;;;;;;16.50;99.90;;;;;;5151690;27;20021;-87
2021/08/12 01:42:56;;;;;;;;;;;16.50;99.90;;;;;;5161976;27;20029;-87
2021/08/12 01:45:22;;;;;;;;;;;16.40;99.90;;;;;;5135387;27;19923;-87
2021/08/12 01:47:48;;;;;;;;;;;16.40;99.90;;;;;;5149730;27;20334;-88
2021/08/12 01:50:16;;;;;;;;;;;16.30;99.90;;;;;;5164635;27;20017;-88
2021/08/12 01:52:44;;;;;;;;;;;16.30;99.90;;;;;;5157177;27;19923;-87
2021/08/12 01:55:11;;;;;;;;;;;16.20;99.90;;;;;;5157473;27;19946;-87
2021/08/12 01:57:38;;;;;;;;;;;16.20;99.90;;;;;;5155886;27;19923;-87
2021/08/12 02:00:05;;;;;;;;;;;16.20;99.90;;;;;;5153545;27;20053;-87
2021/08/12 02:02:32;;;;;;;;;;;16.20;99.90;;;;;;5128518;27;19934;-87
2021/08/12 02:04:57;;;;;;;;;;;16.20;99.90;;;;;;5151496;27;20298;-87
2021/08/12 02:07:23;;;;;;;;;;;16.10;99.90;;;;;;5166917;27;19927;-87
2021/08/12 02:09:49;;;;;;;;;;;16.00;99.90;;;;;;5157737;27;19996;-88
2021/08/12 02:12:14;;;;;;;;;;;16.00;99.90;;;;;;5149161;27;20350;-87
2021/08/12 02:14:40;;;;;;;;;;;16.00;99.90;;;;;;5171312;27;19922;-87
2021/08/12 02:17:06;;;;;;;;;;;16.10;99.90;;;;;;5151781;27;20023;-87
2021/08/12 02:19:32;;;;;;;;;;;16.20;99.90;;;;;;5155505;27;20294;-87
2021/08/12 02:22:00;;;;;;;;;;;16.20;99.90;;;;;;5134653;27;20381;-87
2021/08/12 02:24:33;;;;;;;;;;;16.20;99.90;;;;;;5131940;27;20408;-87
2021/08/12 02:27:00;;;;;;;;;;;16.30;99.90;;;;;;5168786;27;20323;-87
2021/08/12 02:29:29;;;;;;;;;;;16.30;99.90;;;;;;5154184;27;19966;-87
2021/08/12 02:31:55;;;;;;;;;;;16.30;99.90;;;;;;5146816;27;20009;-88
2021/08/12 02:34:22;;;;;;;;;;;16.30;99.90;;;;;;5135648;27;19930;-87
2021/08/12 02:36:48;;;;;;;;;;;16.40;99.90;;;;;;5130393;27;19929;-87
2021/08/12 02:39:15;;;;;;;;;;;16.40;99.90;;;;;;5113804;27;20013;-87
2021/08/12 02:41:42;;;;;;;;;;;16.40;99.90;;;;;;5153529;27;19926;-87
2021/08/12 02:44:08;;;;;;;;;;;16.50;99.90;;;;;;5140667;27;19968;-87
2021/08/12 02:46:34;;;;;;;;;;;16.50;99.90;;;;;;5143871;27;20009;-88
2021/08/12 02:49:00;;;;;;;;;;;16.40;99.90;;;;;;5164639;27;19923;-88
2021/08/12 02:51:27;;;;;;;;;;;16.40;99.90;;;;;;5153576;27;19929;-88
2021/08/12 02:53:54;;;;;;;;;;;16.40;99.90;;;;;;5165778;27;19941;-87
2021/08/12 02:56:20;;;;;;;;;;;16.40;99.90;;;;;;5157122;27;19950;-87
2021/08/12 02:58:47;;;;;;;;;;;16.30;99.90;;;;;;5131779;27;19926;-87
2021/08/12 03:01:14;;;;;;;;;;;16.40;99.90;;;;;;5144792;27;19954;-87
2021/08/12 03:03:41;;;;;;;;;;;16.40;99.90;;;;;;5114146;27;19927;-87
2021/08/12 03:06:09;;;;;;;;;;;16.40;99.90;;;;;;5150316;27;20383;-87
2021/08/12 03:08:36;;;;;;;;;;;16.40;99.90;;;;;;5170212;27;19951;-87
2021/08/12 03:11:02;;;;;;;;;;;16.40;99.90;;;;;;5153510;27;19973;-87
2021/08/12 03:13:27;;;;;;;;;;;16.40;99.90;;;;;;5149910;27;19950;-87
2021/08/12 03:15:53;;;;;;;;;;;16.40;99.90;;;;;;5151715;27;19926;-88
2021/08/12 03:18:19;;;;;;;;;;;16.40;99.90;;;;;;5171658;27;19929;-87
2021/08/12 03:20:45;;;;;;;;;;;16.30;99.90;;;;;;5139722;27;20437;-88
2021/08/12 03:23:11;;;;;;;;;;;16.30;99.90;;;;;;5137663;27;19919;-88
2021/08/12 03:25:37;;;;;;;;;;;16.30;99.90;;;;;;5155708;27;19968;-87
2021/08/12 03:28:03;;;;;;;;;;;16.30;99.90;;;;;;5142487;27;19927;-87
2021/08/12 03:30:29;;;;;;;;;;;16.30;99.90;;;;;;5157322;27;19918;-88
2021/08/12 03:32:55;;;;;;;;;;;16.30;99.90;;;;;;5148790;27;20289;-87
2021/08/12 03:35:20;;;;;;;;;;;16.30;99.90;;;;;;5154480;27;20466;-87
2021/08/12 03:37:46;;;;;;;;;;;16.30;99.90;;;;;;5161742;27;20261;-87
2021/08/12 03:40:12;;;;;;;;;;;16.30;99.90;;;;;;5175816;27;19929;-88
2021/08/12 03:42:38;;;;;;;;;;;16.20;99.90;;;;;;5156662;27;19969;-88
2021/08/12 03:45:04;;;;;;;;;;;16.20;99.90;;;;;;5174569;27;19923;-88
2021/08/12 03:47:30;;;;;;;;;;;16.20;99.90;;;;;;5175107;27;19930;-87
2021/08/12 03:49:56;;;;;;;;;;;16.20;99.90;;;;;;5161334;27;19923;-87
2021/08/12 03:52:21;;;;;;;;;;;16.20;99.90;;;;;;5154706;27;20378;-88
2021/08/12 03:54:47;;;;;;;;;;;16.20;99.90;;;;;;5164241;27;19979;-87
2021/08/12 03:57:13;;;;;;;;;;;16.20;99.90;;;;;;5135007;27;19919;-87
2021/08/12 03:59:38;;;;;;;;;;;16.20;99.90;;;;;;5154801;27;19919;-87
2021/08/12 04:02:05;;;;;;;;;;;16.30;99.90;;;;;;5120170;27;19962;-87
2021/08/12 04:04:31;;;;;;;;;;;16.30;99.90;;;;;;5130912;27;19954;-87
2021/08/12 04:06:57;;;;;;;;;;;16.30;99.90;;;;;;5123110;27;19976;-87
2021/08/12 04:09:23;;;;;;;;;;;16.30;99.90;;;;;;5144069;27;19930;-87
2021/08/12 04:11:48;;;;;;;;;;;16.20;99.90;;;;;;5132674;27;19931;-87
2021/08/12 04:14:14;;;;;;;;;;;16.20;99.90;;;;;;5130268;27;19919;-87
2021/08/12 04:16:40;;;;;;;;;;;16.20;99.90;;;;;;5133491;27;19929;-87
2021/08/12 04:19:06;;;;;;;;;;;16.10;99.90;;;;;;5151854;27;20429;-88
2021/08/12 04:21:32;;;;;;;;;;;16.20;99.90;;;;;;5152610;27;19972;-88
2021/08/12 04:23:58;;;;;;;;;;;16.20;99.90;;;;;;5133330;27;19946;-88
2021/08/12 04:26:27;;;;;;;;;;;16.10;99.90;;;;;;5134372;27;20386;-87
2021/08/12 04:28:56;;;;;;;;;;;16.10;99.90;;;;;;5129958;27;19955;-87
2021/08/12 04:31:23;;;;;;;;;;;16.10;99.90;;;;;;5130093;27;19950;-88
2021/08/12 04:33:48;;;;;;;;;;;16.10;99.90;;;;;;5131048;27;19965;-88
2021/08/12 04:36:14;;;;;;;;;;;16.10;99.90;;;;;;5147547;27;20421;-87
2021/08/12 04:38:40;;;;;;;;;;;16.10;99.90;;;;;;5135430;27;20026;-88
2021/08/12 04:41:06;;;;;;;;;;;16.10;99.90;;;;;;5139817;27;19990;-87
2021/08/12 04:43:32;;;;;;;;;;;16.10;99.90;;;;;;5137818;27;20014;-88
2021/08/12 04:46:02;;;;;;;;;;;16.00;99.90;;;;;;5095895;27;19930;-87
2021/08/12 04:48:27;;;;;;;;;;;16.10;99.90;;;;;;5137476;27;19923;-87
2021/08/12 04:50:53;;;;;;;;;;;16.10;99.90;;;;;;5152131;27;19919;-87
2021/08/12 04:53:19;;;;;;;;;;;16.20;99.90;;;;;;5140234;27;19919;-87
2021/08/12 04:55:44;;;;;;;;;;;16.10;99.90;;;;;;5149459;27;19923;-87
2021/08/12 04:58:11;;;;;;;;;;;16.20;99.90;;;;;;5147145;27;20367;-87
2021/08/12 05:00:51;;;;;;;;;;;16.10;99.90;;;;;;5133585;27;19998;-88
2021/08/12 05:03:17;;;;;;;;;;;16.20;99.90;;;;;;5111631;27;19927;-89
2021/08/12 05:05:43;;;;;;;;;;;16.20;99.90;;;;;;5116864;27;20378;-89
2021/08/12 05:08:09;;;;;;;;;;;16.20;99.90;;;;;;5157524;27;19919;-87
2021/08/12 05:10:39;;;;;;;;;;;16.30;99.90;;;;;;5135393;27;19923;-88
2021/08/12 05:13:04;;;;;;;;;;;16.30;99.90;;;;;;5154546;27;19979;-86
2021/08/12 05:15:35;;;;;;;;;;;16.30;99.90;;;;;;5154031;27;19931;-86
2021/08/12 05:18:01;;;;;;;;;;;16.30;99.90;;;;;;5154114;27;19926;-86
2021/08/12 05:20:27;;;;;;;;;;;16.30;99.90;;;;;;5165226;27;19984;-84
2021/08/12 05:22:57;;;;;;;;;;;16.30;99.90;;;;;;5159144;27;19942;-84
2021/08/12 05:25:22;;;;;;;;;;;16.40;99.90;;;;;;5141346;27;19950;-84
2021/08/12 05:27:48;;;;;;;;;;;16.40;99.90;;;;;;5158770;27;19923;-86
2021/08/12 05:30:14;;;;;;;;;;;16.40;99.90;;;;;;5158349;27;19958;-85
2021/08/12 05:32:40;;;;;;;;;;;16.50;99.90;;;;;;5161272;27;19923;-85
2021/08/12 05:35:06;;;;;;;;;;;16.50;99.90;;;;;;5131785;27;19966;-85
2021/08/12 05:37:31;;;;;;;;;;;16.60;99.90;;;;;;5111549;27;20054;-85
2021/08/12 05:39:57;;;;;;;;;;;16.60;99.90;;;;;;5132093;27;19932;-85
2021/08/12 05:42:23;;;;;;;;;;;16.60;99.90;;;;;;5143530;27;20335;-85
2021/08/12 05:44:49;;;;;;;;;;;16.70;99.90;;;;;;5137640;27;20280;-85
2021/08/12 05:47:14;;;;;;;;;;;16.70;99.90;;;;;;5135301;27;20014;-85
2021/08/12 05:49:41;;;;;;;;;;;16.80;99.90;;;;;;5147121;27;20389;-85
2021/08/12 05:52:07;;;;;;;;;;;16.80;99.90;;;;;;5146868;27;19971;-85
2021/08/12 05:54:33;;;;;;;;;;;16.90;99.90;;;;;;5154917;27;20583;-85
2021/08/12 05:56:59;;;;;;;;;;;16.90;99.90;;;;;;5143457;27;19923;-85
2021/08/12 05:59:25;;;;;;;;;;;16.90;99.90;;;;;;5144528;27;19979;-85
2021/08/12 06:01:50;;;;;;;;;;;16.90;99.90;;;;;;5146122;27;19927;-85
2021/08/12 06:04:20;;;;;;;;;;;16.90;99.90;;;;;;5129846;27;19926;-84
2021/08/12 06:06:46;;;;;;;;;;;16.90;99.90;;;;;;5124998;27;19937;-84
2021/08/12 06:09:12;;;;;;;;;;;16.90;99.90;;;;;;5124500;27;20177;-85
2021/08/12 06:11:37;;;;;;;;;;;17.00;99.90;;;;;;5129658;27;19927;-85
2021/08/12 06:14:03;;;;;;;;;;;17.00;99.90;;;;;;5131732;27;19931;-85
2021/08/12 06:16:30;;;;;;;;;;;17.00;99.90;;;;;;5134485;27;19962;-85
2021/08/12 06:18:57;;;;;;;;;;;17.00;99.90;;;;;;5127939;27;19983;-85
2021/08/12 06:21:23;;;;;;;;;;;17.00;99.90;;;;;;5122827;27;19923;-85
2021/08/12 06:23:50;;;;;;;;;;;17.00;99.90;;;;;;5111785;27;19977;-85
2021/08/12 06:26:16;;;;;;;;;;;17.00;99.90;;;;;;5116606;27;19943;-85
2021/08/12 06:28:43;;;;;;;;;;;17.00;99.90;;;;;;5126858;27;20378;-84
2021/08/12 06:31:09;;;;;;;;;;;17.10;99.90;;;;;;5122095;27;19930;-85
2021/08/12 06:33:35;;;;;;;;;;;17.10;99.90;;;;;;5144909;27;20278;-85
2021/08/12 06:36:00;;;;;;;;;;;17.10;99.90;;;;;;5150754;27;20421;-88
2021/08/12 06:38:26;;;;;;;;;;;17.20;99.90;;;;;;5100477;27;20010;-87
2021/08/12 06:40:52;;;;;;;;;;;17.20;99.90;;;;;;5115348;27;19977;-87
2021/08/12 06:43:18;;;;;;;;;;;17.30;99.90;;;;;;5126958;27;19927;-87
2021/08/12 06:45:45;;;;;;;;;;;17.30;99.90;;;;;;5136729;27;19923;-88
2021/08/12 06:48:10;;;;;;;;;;;17.40;99.90;;;;;;5130490;27;19930;-88
2021/08/12 06:50:36;;;;;;;;;;;17.50;99.90;;;;;;5111620;27;19924;-88
2021/08/12 06:53:02;;;;;;;;;;;17.60;99.90;;;;;;5142894;27;20376;-87
2021/08/12 06:55:30;;;;;;;;;;;17.60;99.90;;;;;;5133009;27;19927;-87
2021/08/12 06:57:56;;;;;;;;;;;17.70;99.90;;;;;;5139481;27;20335;-88
2021/08/12 07:00:22;;;;;;;;;;;17.70;99.90;;;;;;5128483;27;19923;-88
2021/08/12 07:02:54;;;;;;;;;;;17.70;99.90;;;;;;5145075;27;19923;-87
2021/08/12 07:05:20;;;;;;;;;;;17.70;99.90;;;;;;5151733;27;19923;-88
2021/08/12 07:07:47;;;;;;;;;;;17.70;99.90;;;;;;5143435;27;19959;-88
2021/08/12 07:10:13;;;;;;;;;;;17.80;99.90;;;;;;5151197;27;20349;-88
2021/08/12 07:12:39;;;;;;;;;;;17.80;99.90;;;;;;5135464;27;20336;-87
2021/08/12 07:15:05;;;;;;;;;;;17.80;99.90;;;;;;5135800;27;19924;-87
2021/08/12 07:17:34;;;;;;;;;;;17.80;99.90;;;;;;5145416;27;20361;-88
2021/08/12 07:20:00;;;;;;;;;;;17.90;99.90;;;;;;5136938;27;19923;-88
2021/08/12 07:22:26;;;;;;;;;;;17.90;99.90;;;;;;5145456;27;19930;-88
2021/08/12 07:24:51;;;;;;;;;;;18.00;99.90;;;;;;5145387;27;19930;-88
2021/08/12 07:27:17;;;;;;;;;;;18.10;99.90;;;;;;5130330;27;20382;-88
2021/08/12 07:29:43;;;;;;;;;;;18.10;99.90;;;;;;5148937;27;19919;-87
2021/08/12 07:32:10;;;;;;;;;;;18.10;99.90;;;;;;5141528;27;20275;-88
2021/08/12 07:34:36;;;;;;;;;;;18.20;99.90;;;;;;5138805;27;20426;-85
2021/08/12 07:37:03;;;;;;;;;;;18.30;99.90;;;;;;5146701;27;20427;-85
2021/08/12 07:39:29;;;;;;;;;;;18.30;99.90;;;;;;5156539;27;19927;-85
2021/08/12 07:41:54;;;;;;;;;;;18.40;99.90;;;;;;5143460;27;20344;-85
2021/08/12 07:44:20;;;;;;;;;;;18.50;99.90;;;;;;5133540;27;19927;-85
2021/08/12 07:46:46;;;;;;;;;;;18.60;99.90;;;;;;5139589;27;19923;-86
2021/08/12 07:49:11;;;;;;;;;;;18.60;99.90;;;;;;5147868;27;19919;-86
2021/08/12 07:51:37;;;;;;;;;;;18.70;99.90;;;;;;5137980;27;19945;-86
2021/08/12 07:54:03;;;;;;;;;;;18.70;99.90;;;;;;5139016;27;19923;-85
2021/08/12 07:56:28;;;;;;;;;;;18.70;99.90;;;;;;5141549;27;19927;-86
2021/08/12 07:58:54;;;;;;;;;;;18.70;99.90;;;;;;5144427;27;19934;-86
2021/08/12 08:01:20;;;;;;;;;;;18.60;99.90;;;;;;5138175;27;19927;-86
2021/08/12 08:03:46;;;;;;;;;;;18.60;99.90;;;;;;5139509;27;19928;-85
2021/08/12 08:06:12;;;;;;;;;;;18.60;99.90;;;;;;5140552;27;19968;-86
2021/08/12 08:08:38;;;;;;;;;;;18.60;99.90;;;;;;5138493;27;19927;-86
2021/08/12 08:11:04;;;;;;;;;;;18.60;99.90;;;;;;5140182;27;19934;-87
2021/08/12 08:13:30;;;;;;;;;;;18.60;99.90;;;;;;5139890;27;19928;-85
2021/08/12 08:15:57;;;;;;;;;;;18.50;99.90;;;;;;5135939;27;20350;-86
2021/08/12 08:18:23;;;;;;;;;;;18.60;99.90;;;;;;5136743;27;19923;-87
2021/08/12 08:20:49;;;;;;;;;;;18.70;99.90;;;;;;5127401;27;20405;-87
2021/08/12 08:23:15;;;;;;;;;;;18.70;99.90;;;;;;5122332;27;19931;-86
2021/08/12 08:25:41;;;;;;;;;;;18.70;99.90;;;;;;5134423;27;19923;-86
2021/08/12 08:28:07;;;;;;;;;;;18.80;99.90;;;;;;5136113;27;20387;-87
2021/08/12 08:30:33;;;;;;;;;;;18.90;99.90;;;;;;5136658;27;20022;-87
2021/08/12 08:32:59;;;;;;;;;;;18.90;99.90;;;;;;5135516;27;19927;-86
2021/08/12 08:35:25;;;;;;;;;;;19.10;99.90;;;;;;5134874;27;19934;-86
2021/08/12 08:37:52;;;;;;;;;;;19.20;99.90;;;;;;5136581;27;19930;-86
2021/08/12 08:40:18;;;;;;;;;;;19.20;99.90;;;;;;5135809;27;19923;-86
2021/08/12 08:42:45;;;;;;;;;;;19.30;99.90;;;;;;5137872;27;19938;-87
2021/08/12 08:45:11;;;;;;;;;;;19.20;99.90;;;;;;5136092;27;19928;-86
2021/08/12 08:47:38;;;;;;;;;;;19.20;99.90;;;;;;5137080;27;19927;-86
2021/08/12 08:50:04;;;;;;;;;;;19.20;99.90;;;;;;5137572;27;19923;-87
2021/08/12 08:52:30;;;;;;;;;;;19.20;99.90;;;;;;5134882;27;19958;-86
2021/08/12 08:54:56;;;;;;;;;;;19.20;99.90;;;;;;5134631;27;20029;-86
2021/08/12 08:57:22;;;;;;;;;;;19.30;99.90;;;;;;5135435;27;20425;-86
2021/08/12 08:59:48;;;;;;;;;;;19.30;99.90;;;;;;5136299;27;19927;-86
2021/08/12 09:02:14;;;;;;;;;;;19.40;99.90;;;;;;5136963;27;20023;-87
2021/08/12 09:04:40;;;;;;;;;;;19.50;99.90;;;;;;5134693;27;19927;-86
2021/08/12 09:07:09;;;;;;;;;;;19.60;99.90;;;;;;5133154;27;20358;-87
2021/08/12 09:09:38;;;;;;;;;;;19.60;99.90;;;;;;5130353;27;19923;-87
2021/08/12 09:12:05;;;;;;;;;;;19.70;99.90;;;;;;5130084;27;20038;-86
2021/08/12 09:14:31;;;;;;;;;;;19.70;99.90;;;;;;5128984;27;19923;-87
2021/08/12 09:16:57;;;;;;;;;;;19.70;99.90;;;;;;5129555;27;20431;-87
2021/08/12 09:19:24;;;;;;;;;;;19.70;99.90;;;;;;5129077;27;19931;-86
2021/08/12 09:21:51;;;;;;;;;;;19.70;99.90;;;;;;5121435;27;19927;-87
2021/08/12 09:24:17;;;;;;;;;;;19.70;99.90;;;;;;5134714;27;19927;-86
2021/08/12 09:26:43;;;;;;;;;;;19.70;99.90;;;;;;5138394;27;19920;-86
2021/08/12 09:29:10;;;;;;;;;;;19.70;99.90;;;;;;5138903;27;19930;-86
2021/08/12 09:31:53;;;;;;;;;;;19.80;99.90;;;;;;5138879;27;20058;-84
2021/08/12 09:34:19;;;;;;;;;;;19.80;99.90;;;;;;5138632;27;19964;-86
2021/08/12 09:36:45;;;;;;;;;;;19.80;99.90;;;;;;5139866;27;19923;-85
2021/08/12 09:39:22;;;;;;;;;;;19.80;99.90;;;;;;5138332;27;19923;-86
2021/08/12 09:41:49;;;;;;;;;;;19.90;99.90;;;;;;5137802;27;20299;-85
2021/08/12 09:44:35;;;;;;;;;;;19.90;99.90;;;;;;5150777;27;20009;-86
2021/08/12 09:47:01;;;;;;;;;;;20.00;99.90;;;;;;5129788;27;19920;-85
2021/08/12 09:49:54;;;;;;;;;;;20.00;99.90;;;;;;5112725;27;19926;-86
2021/08/12 09:52:27;;;;;;;;;;;20.10;99.90;;;;;;5127160;27;19923;-86
2021/08/12 09:54:59;;;;;;;;;;;20.10;99.90;;;;;;5129785;27;20056;-85
2021/08/12 09:57:25;;;;;;;;;;;20.10;99.90;;;;;;5145982;27;19955;-85
2021/08/12 09:59:51;;;;;;;;;;;20.10;99.90;;;;;;5151627;27;20022;-86
2021/08/12 10:02:17;;;;;;;;;;;20.20;99.90;;;;;;5151474;27;19923;-86
2021/08/12 10:04:44;;;;;;;;;;;20.20;99.90;;;;;;5166474;27;19977;-86
2021/08/12 10:07:28;;;;;;;;;;;20.20;99.90;;;;;;5171180;27;19919;-85
2021/08/12 10:09:54;;;;;;;;;;;20.20;99.90;;;;;;5172372;27;20461;-85
2021/08/12 10:12:32;;;;;;;;;;;20.20;99.90;;;;;;5171751;27;19929;-86
2021/08/12 10:14:58;;;;;;;;;;;20.30;99.90;;;;;;5172194;27;19922;-86
2021/08/12 10:17:23;;;;;;;;;;;20.30;99.90;;;;;;5170873;27;20073;-85
2021/08/12 10:19:49;;;;;;;;;;;20.30;99.90;;;;;;5172075;27;19922;-85
2021/08/12 10:22:15;;;;;;;;;;;20.30;99.90;;;;;;5162558;27;20293;-85
2021/08/12 10:24:41;;;;;;;;;;;20.40;99.90;;;;;;5115303;27;20379;-85
2021/08/12 10:27:06;;;;;;;;;;;20.50;99.90;;;;;;5142137;27;19946;-85
2021/08/12 10:29:34;;;;;;;;;;;20.50;99.90;;;;;;5152673;27;19923;-86
2021/08/12 10:32:01;;;;;;;;;;;20.50;99.90;;;;;;5152810;27;19923;-85
2021/08/12 10:34:27;;;;;;;;;;;20.60;99.90;;;;;;5171912;27;19950;-86
2021/08/12 10:36:53;;;;;;;;;;;20.60;99.90;;;;;;5134085;27;20370;-86
2021/08/12 10:39:20;;;;;;;;;;;20.60;99.90;;;;;;5149921;27;19923;-86
2021/08/12 10:41:46;;;;;;;;;;;20.70;99.90;;;;;;5150425;27;19926;-85
2021/08/12 10:44:14;;;;;;;;;;;20.70;99.90;;;;;;5150567;27;20506;-86
2021/08/12 10:46:40;;;;;;;;;;;20.70;99.90;;;;;;5144939;27;19937;-86
2021/08/12 10:49:36;;;;;;;;;;;20.80;99.90;;;;;;5117810;27;19987;-86
2021/08/12 10:52:06;;;;;;;;;;;20.80;99.90;;;;;;5117498;27;19930;-86
2021/08/12 10:54:32;;;;;;;;;;;20.80;99.90;;;;;;5140496;27;19927;-86
2021/08/12 10:57:18;;;;;;;;;;;20.80;99.90;;;;;;5171573;27;20013;-87
2021/08/12 10:59:44;;;;;;;;;;;20.80;99.90;;;;;;5166454;27;19968;-88
2021/08/12 11:02:29;;;;;;;;;;;20.80;99.90;;;;;;5144143;27;19976;-88
2021/08/12 11:04:56;;;;;;;;;;;20.70;99.90;;;;;;5151219;27;20021;-89
2021/08/12 11:07:34;;;;;;;;;;;20.60;99.90;;;;;;5136220;27;20462;-86
2021/08/12 11:10:00;;;;;;;;;;;20.50;99.90;;;;;;5129392;27;19927;-85
2021/08/12 11:12:45;;;;;;;;;;;20.60;99.90;;;;;;5159906;27;19929;-86
2021/08/12 11:15:11;;;;;;;;;;;20.60;99.90;;;;;;5135860;27;19934;-85
2021/08/12 11:17:52;;;;;;;;;;;20.70;99.90;;;;;;5137329;27;19923;-85
2021/08/12 11:20:38;;;;;;;;;;;20.80;99.90;;;;;;5119825;27;20047;-91
2021/08/12 11:23:22;;;;;;;;;;;20.80;99.90;;;;;;5117975;27;19919;-92
2021/08/12 11:25:54;;;;;;;;;;;21.00;99.90;;;;;;5119036;27;19927;-92
2021/08/12 11:28:39;;;;;;;;;;;21.20;99.90;;;;;;5132670;27;19965;-92
2021/08/12 11:31:08;;;;;;;;;;;21.30;99.90;;;;;;5132444;27;19922;-92
2021/08/12 11:33:56;;;;;;;;;;;21.30;99.90;;;;;;5141845;27;19929;-92
2021/08/12 11:36:23;;;;;;;;;;;21.30;99.90;;;;;;5140190;27;19967;-90
2021/08/12 11:38:53;;;;;;;;;;;21.30;99.90;;;;;;5168289;27;20437;-90
2021/08/12 11:41:19;;;;;;;;;;;21.30;99.90;;;;;;5152896;27;19918;-90
2021/08/12 11:43:46;;;;;;;;;;;21.30;99.90;;;;;;5132503;27;19943;-91
2021/08/12 11:46:12;;;;;;;;;;;21.30;99.90;;;;;;5132746;27;19922;-91
2021/08/12 11:48:38;;;;;;;;;;;21.20;99.90;;;;;;5115769;27;19951;-90
2021/08/12 11:51:05;;;;;;;;;;;21.20;99.90;;;;;;5155862;27;20005;-90
2021/08/12 11:53:37;;;;;;;;;;;21.30;99.90;;;;;;5150768;27;20488;-92
2021/08/12 11:56:07;;;;;;;;;;;21.30;99.90;;;;;;5157536;27;19926;-92
2021/08/12 11:58:33;;;;;;;;;;;21.40;99.90;;;;;;5160671;27;20063;-92
2021/08/12 12:01:08;;;;;;;;;;;21.50;99.90;;;;;;5135491;27;20018;-91
2021/08/12 12:03:34;;;;;;;;;;;21.50;99.90;;;;;;5160066;27;19934;-91
2021/08/12 12:06:00;;;;;;;;;;;21.60;99.90;;;;;;5157028;27;19947;-91
2021/08/12 12:08:29;;;;;;;;;;;21.60;99.90;;;;;;5135352;27;20543;-90
2021/08/12 12:11:06;;;;;;;;;;;21.60;99.90;;;;;;5152410;27;19935;-90
2021/08/12 12:13:32;;;;;;;;;;;21.70;99.90;;;;;;5154573;27;19929;-91
2021/08/12 12:15:58;;;;;;;;;;;21.70;99.90;;;;;;5155966;27;20038;-91
2021/08/12 12:18:31;;;;;;;;;;;21.70;99.90;;;;;;5131742;27;19972;-93
2021/08/12 12:21:16;;;;;;;;;;;21.70;99.90;;;;;;5138764;27;19974;-86
2021/08/12 12:23:44;;;;;;;;;;;21.70;99.90;;;;;;5158532;27;20026;-87
2021/08/12 12:26:20;;;;;;;;;;;21.70;99.90;;;;;;5165026;27;19926;-88
2021/08/12 12:28:48;;;;;;;;;;;21.70;99.90;;;;;;5143458;27;19926;-88
2021/08/12 12:31:15;;;;;;;;;;;21.70;99.90;;;;;;5151706;27;20290;-90
2021/08/12 12:33:41;;;;;;;;;;;21.70;99.90;;;;;;5148449;27;20418;-90
2021/08/12 12:36:07;;;;;;;;;;;21.70;99.90;;;;;;5137465;27;19927;-89
2021/08/12 12:38:33;;;;;;;;;;;21.60;99.90;;;;;;5135339;27;19929;-89
2021/08/12 12:41:03;;;;;;;;;;;21.70;99.90;;;;;;5134157;27;19962;-90
2021/08/12 12:43:29;;;;;;;;;;;21.70;99.90;;;;;;5160164;27;19930;-89
2021/08/12 12:45:55;;;;;;;;;;;21.80;99.90;;;;;;5134116;27;19941;-90
2021/08/12 12:48:39;;;;;;;;;;;21.90;99.90;;;;;;5160917;27;20439;-90
2021/08/12 12:51:06;;;;;;;;;;;22.00;99.90;;;;;;5156720;27;19927;-90
2021/08/12 12:53:40;;;;;;;;;;;21.90;99.90;;;;;;5130509;27;19976;-89
2021/08/12 12:56:19;;;;;;;;;;;21.90;99.90;;;;;;5143535;27;21223;-89
2021/08/12 12:58:45;;;;;;;;;;;22.00;99.90;;;;;;5161845;27;20417;-88
2021/08/12 13:01:17;;;;;;;;;;;22.10;99.90;;;;;;5159976;27;19922;-89
2021/08/12 13:03:45;;;;;;;;;;;22.10;99.90;;;;;;5144840;27;19927;-89
2021/08/12 13:06:13;;;;;;;;;;;22.20;99.90;;;;;;5165582;27;20093;-90
2021/08/12 13:08:41;;;;;;;;;;;22.20;99.90;;;;;;5138623;27;19919;-89
2021/08/12 13:11:07;;;;;;;;;;;22.20;99.90;;;;;;5128594;27;20372;-89
2021/08/12 13:13:33;;;;;;;;;;;22.20;99.90;;;;;;5150751;27;19919;-89
2021/08/12 13:15:59;;;;;;;;;;;22.20;99.90;;;;;;5123103;27;19988;-89
2021/08/12 13:18:44;;;;;;;;;;;22.20;99.90;;;;;;5143173;27;20377;-88
2021/08/12 13:21:22;;;;;;;;;;;22.20;99.90;;;;;;5164888;27;19919;-90
2021/08/12 13:23:52;;;;;;;;;;;22.20;99.90;;;;;;5147955;27;19939;-88
2021/08/12 13:26:37;;;;;;;;;;;22.30;99.90;;;;;;5132489;27;20274;-88
2021/08/12 13:29:20;;;;;;;;;;;22.30;99.90;;;;;;5156960;27;19971;-90
2021/08/12 13:31:47;;;;;;;;;;;22.20;99.90;;;;;;5168455;27;19919;-89
2021/08/12 13:34:13;;;;;;;;;;;22.20;99.90;;;;;;5164877;27;19946;-88
2021/08/12 13:36:39;;;;;;;;;;;22.20;99.90;;;;;;5138405;27;19915;-89
2021/08/12 13:39:05;;;;;;;;;;;22.20;99.90;;;;;;5137170;27;20272;-90
2021/08/12 13:41:42;;;;;;;;;;;22.20;99.90;;;;;;5150437;27;19922;-91
2021/08/12 13:44:08;;;;;;;;;;;22.20;99.90;;;;;;5139194;27;19927;-89
2021/08/12 13:46:34;;;;;;;;;;;22.30;99.90;;;;;;5159845;27;19921;-89
2021/08/12 13:48:59;;;;;;;;;;;22.30;99.90;;;;;;5136959;27;20385;-89
2021/08/12 13:51:29;;;;;;;;;;;22.30;99.90;;;;;;5118128;27;19941;-90
2021/08/12 13:53:55;;;;;;;;;;;22.30;99.90;;;;;;5146423;27;20340;-90
2021/08/12 13:56:21;;;;;;;;;;;22.30;99.90;;;;;;5139217;27;19919;-90
2021/08/12 13:58:47;;;;;;;;;;;22.30;99.90;;;;;;5146915;27;20286;-90
2021/08/12 14:01:13;;;;;;;;;;;22.40;99.90;;;;;;5168440;27;20373;-90
2021/08/12 14:03:38;;;;;;;;;;;22.40;99.90;;;;;;5125998;27;19927;-90
2021/08/12 14:06:04;;;;;;;;;;;22.40;99.90;;;;;;5137537;27;19919;-90
2021/08/12 14:08:30;;;;;;;;;;;22.40;99.90;;;;;;5146632;27;19927;-89
2021/08/12 14:10:56;;;;;;;;;;;22.40;99.90;;;;;;5123412;27;19933;-89
2021/08/12 14:13:22;;;;;;;;;;;22.40;99.90;;;;;;5116763;27;19929;-88
2021/08/12 14:15:48;;;;;;;;;;;22.30;99.90;;;;;;5151266;27;19923;-90
2021/08/12 14:18:16;;;;;;;;;;;22.30;99.90;;;;;;5132493;27;19927;-90
2021/08/12 14:20:42;;;;;;;;;;;22.40;99.90;;;;;;5141486;27;19929;-89